createdAt,value
2023-04-09T00:02:59.897Z,32.10
2023-04-09T00:07:01.676Z,32.75
2023-04-09T00:11:03.700Z,31.42
2023-04-09T00:15:06.168Z,32.28
2023-04-09T00:19:07.887Z,33.47
2023-04-09T00:23:11.776Z,31.77
2023-04-09T00:27:14.663Z,32.72
2023-04-09T00:31:16.430Z,31.35
2023-04-09T00:35:18.187Z,32.75
2023-04-09T00:39:19.879Z,32.22
2023-04-09T00:43:22.138Z,31.67
2023-04-09T00:47:23.821Z,31.00
2023-04-09T00:51:26.323Z,30.92
2023-04-09T00:55:29.025Z,30.45
2023-04-09T00:59:31.244Z,30.92
2023-04-09T01:03:33.243Z,29.70
2023-04-09T01:07:46.443Z,30.10
2023-04-09T01:12:14.373Z,27.83
2023-04-09T01:16:19.220Z,28.95
2023-04-09T01:20:27.683Z,27.73
2023-04-09T01:24:32.055Z,28.17
2023-04-09T01:28:36.680Z,28.05
2023-04-09T01:32:39.802Z,28.55
2023-04-09T01:36:42.930Z,28.70
2023-04-09T01:40:44.899Z,28.75
2023-04-09T01:44:47.026Z,26.98
2023-04-09T01:48:49.556Z,27.17
2023-04-09T01:52:51.584Z,26.35
2023-04-09T01:56:53.333Z,27.23
2023-04-09T02:01:38.464Z,28.10
2023-04-09T02:05:46.594Z,25.62
2023-04-09T02:09:49.296Z,25.55
2023-04-09T02:13:54.204Z,27.00
2023-04-09T02:17:55.960Z,27.60
2023-04-09T02:21:57.813Z,28.00
2023-04-09T02:25:59.783Z,26.85
2023-04-09T02:30:01.557Z,27.02
2023-04-09T02:34:03.238Z,26.02
2023-04-09T02:38:05.105Z,25.00
2023-04-09T02:42:07.837Z,24.80
2023-04-09T02:46:09.586Z,26.60
2023-04-09T02:50:11.425Z,25.15
2023-04-09T02:54:13.120Z,23.33
2023-04-09T02:58:14.808Z,24.48
2023-04-09T03:02:16.664Z,24.95
2023-04-09T03:06:18.718Z,25.40
2023-04-09T03:10:20.581Z,24.05
2023-04-09T03:14:22.272Z,24.75
2023-04-09T03:18:23.990Z,25.10
2023-04-09T03:22:25.766Z,23.02
2023-04-09T03:26:27.445Z,24.35
2023-04-09T03:30:29.722Z,23.08
2023-04-09T03:34:31.418Z,22.75
2023-04-09T03:38:33.088Z,24.55
2023-04-09T03:42:35.603Z,21.85
2023-04-09T03:46:37.310Z,21.50
2023-04-09T03:50:40.822Z,21.98
2023-04-09T03:54:43.428Z,20.05
2023-04-09T03:58:45.172Z,22.00
2023-04-09T04:02:46.970Z,21.05
2023-04-09T04:06:48.705Z,21.60
2023-04-09T04:10:50.575Z,20.62
2023-04-09T04:14:52.261Z,20.77
2023-04-09T04:18:54.204Z,18.73
2023-04-09T04:22:56.101Z,20.20
2023-04-09T04:26:57.796Z,20.02
2023-04-09T04:30:59.505Z,19.73
2023-04-09T04:35:01.196Z,19.30
2023-04-09T04:39:02.996Z,19.83
2023-04-09T04:43:04.634Z,19.85
2023-04-09T04:47:06.327Z,18.70
2023-04-09T04:51:07.995Z,20.02
2023-04-09T04:55:09.903Z,20.10
2023-04-09T04:59:11.799Z,19.17
2023-04-09T05:03:13.893Z,18.73
2023-04-09T05:07:15.998Z,19.42
2023-04-09T05:11:17.729Z,17.52
2023-04-09T05:15:19.620Z,17.80
2023-04-09T05:19:21.326Z,17.58
2023-04-09T05:23:22.990Z,18.62
2023-04-09T05:27:25.965Z,17.83
2023-04-09T05:31:27.679Z,18.85
2023-04-09T05:35:29.439Z,18.42
2023-04-09T05:39:32.908Z,18.70
2023-04-09T05:43:34.696Z,18.75
2023-04-09T05:47:36.454Z,18.48
2023-04-09T05:51:38.137Z,18.20
2023-04-09T05:55:39.879Z,18.35
2023-04-09T05:59:41.672Z,17.45
2023-04-09T06:03:44.052Z,18.77
2023-04-09T06:07:45.835Z,17.75
2023-04-09T06:11:47.511Z,17.98
2023-04-09T06:15:49.268Z,19.30
2023-04-09T06:19:50.950Z,19.45
2023-04-09T06:23:53.544Z,18.73
2023-04-09T06:27:56.881Z,18.08
2023-04-09T06:31:59.302Z,16.23
2023-04-09T06:36:01.294Z,15.43
2023-04-09T06:40:03.362Z,14.60
2023-04-09T06:44:05.188Z,14.68
2023-04-09T06:48:07.264Z,13.62
2023-04-09T06:52:09.045Z,13.05
2023-04-09T06:56:11.190Z,12.32
2023-04-09T07:00:13.325Z,12.32
2023-04-09T07:04:15.486Z,12.65
2023-04-09T07:08:17.361Z,13.15
2023-04-09T07:12:27.712Z,11.35
2023-04-09T07:16:29.473Z,11.77
2023-04-09T07:20:31.174Z,12.05
2023-04-09T07:24:32.881Z,11.73
2023-04-09T07:28:34.539Z,9.98
2023-04-09T07:32:37.748Z,11.15
2023-04-09T07:36:41.015Z,10.70
2023-04-09T07:40:42.678Z,10.45
2023-04-09T07:44:44.466Z,10.10
2023-04-09T07:48:48.272Z,9.70
2023-04-09T07:52:50.308Z,9.25
2023-04-09T07:56:52.240Z,8.32
2023-04-09T08:00:53.977Z,8.45
2023-04-09T08:04:55.908Z,8.15
2023-04-09T08:08:57.688Z,7.65
2023-04-09T08:12:59.379Z,7.80
2023-04-09T08:17:01.448Z,8.48
2023-04-09T08:21:05.242Z,8.13
2023-04-09T08:25:07.465Z,8.13
2023-04-09T08:29:10.246Z,8.15
2023-04-09T08:33:12.212Z,7.93
2023-04-09T08:37:13.900Z,6.97
2023-04-09T08:41:24.655Z,7.85
2023-04-09T08:45:26.412Z,7.15
2023-04-09T08:49:28.170Z,7.03
2023-04-09T08:53:30.198Z,7.10
2023-04-09T08:57:37.821Z,6.55
2023-04-09T09:01:39.593Z,6.72
2023-04-09T09:05:43.497Z,7.00
2023-04-09T09:09:59.350Z,6.90
2023-04-09T09:14:01.840Z,7.18
2023-04-09T09:18:03.878Z,6.87
2023-04-09T09:22:08.384Z,6.47
2023-04-09T09:26:20.664Z,6.30
2023-04-09T09:30:24.422Z,6.20
2023-04-09T09:34:26.232Z,5.85
2023-04-09T09:38:27.976Z,5.97
2023-04-09T09:42:29.760Z,6.47
2023-04-09T09:46:42.865Z,6.37
2023-04-09T09:50:46.348Z,6.22
2023-04-09T09:54:52.234Z,5.60
2023-04-09T09:58:59.550Z,5.50
2023-04-09T10:03:12.104Z,5.28
2023-04-09T10:07:15.952Z,5.82
2023-04-09T10:11:19.791Z,4.95
2023-04-09T10:15:21.896Z,5.03
2023-04-09T10:19:23.920Z,4.60
2023-04-09T10:23:37.824Z,4.82
2023-04-09T10:27:39.627Z,5.20
2023-04-09T10:32:04.490Z,5.20
2023-04-09T10:36:10.914Z,5.55
2023-04-09T10:40:20.416Z,5.53
2023-04-09T10:44:24.234Z,5.43
2023-04-09T10:48:26.564Z,5.15
2023-04-09T10:52:31.219Z,5.55
2023-04-09T10:56:33.329Z,5.47
2023-04-09T11:00:42.832Z,5.28
2023-04-09T11:05:23.780Z,5.28
2023-04-09T11:09:25.558Z,5.70
2023-04-09T11:13:28.659Z,5.20
2023-04-09T11:17:35.815Z,4.97
2023-04-09T11:21:37.555Z,5.80
2023-04-09T11:25:39.237Z,4.72
2023-04-09T11:29:42.333Z,5.32
2023-04-09T11:33:46.770Z,4.82
2023-04-09T11:37:50.567Z,5.20
2023-04-09T11:41:52.285Z,4.97
2023-04-09T11:45:55.890Z,5.28
2023-04-09T11:49:59.557Z,5.68
2023-04-09T11:54:08.148Z,5.40
2023-04-09T11:58:11.507Z,5.50
2023-04-09T12:02:18.103Z,4.57
2023-04-09T12:06:22.826Z,4.78
2023-04-09T12:10:31.369Z,5.12
2023-04-09T12:14:33.050Z,4.18
2023-04-09T12:18:40.195Z,4.95
2023-04-09T12:22:41.932Z,5.65
2023-04-09T12:26:45.084Z,5.60
2023-04-09T12:30:48.153Z,6.03
2023-04-09T12:34:49.938Z,5.72
2023-04-09T12:38:51.804Z,5.78
2023-04-09T12:42:54.082Z,5.18
2023-04-09T12:46:56.130Z,4.70
2023-04-09T12:50:57.822Z,5.37
2023-04-09T12:54:59.554Z,6.12
2023-04-09T12:59:01.642Z,5.32
2023-04-09T13:03:03.543Z,5.70
2023-04-09T13:07:05.483Z,5.90
2023-04-09T13:11:07.155Z,5.00
2023-04-09T13:15:09.092Z,5.65
2023-04-09T13:19:11.090Z,4.75
2023-04-09T13:23:12.761Z,5.12
2023-04-09T13:27:14.533Z,4.93
2023-04-09T13:31:16.451Z,4.95
2023-04-09T13:35:19.031Z,4.80
2023-04-09T13:39:20.990Z,5.15
2023-04-09T13:43:27.753Z,4.78
2023-04-09T13:47:29.569Z,4.62
2023-04-09T13:51:31.481Z,5.00
2023-04-09T13:55:33.169Z,4.72
2023-04-09T13:59:34.849Z,4.15
2023-04-09T14:03:38.485Z,3.90
2023-04-09T14:07:40.364Z,4.18
2023-04-09T14:11:42.164Z,4.20
2023-04-09T14:15:45.293Z,4.55
2023-04-09T14:19:47.120Z,3.80
2023-04-09T14:23:48.856Z,3.87
2023-04-09T14:27:50.746Z,3.92
2023-04-09T14:31:53.185Z,3.80
2023-04-09T14:35:56.242Z,3.80
2023-04-09T14:39:58.004Z,4.25
2023-04-09T14:43:59.888Z,4.15
2023-04-09T14:48:01.627Z,4.10
2023-04-09T14:52:03.482Z,3.55
2023-04-09T14:56:05.651Z,3.72
2023-04-09T15:00:08.744Z,3.65
2023-04-09T15:04:10.693Z,4.05
2023-04-09T15:08:13.281Z,3.58
2023-04-09T15:12:15.482Z,3.92
2023-04-09T15:16:25.774Z,4.37
2023-04-09T15:20:27.785Z,4.45
2023-04-09T15:24:29.553Z,4.03
2023-04-09T15:28:31.446Z,4.68
2023-04-09T15:32:33.220Z,3.90
2023-04-09T15:36:35.094Z,3.95
2023-04-09T15:40:36.796Z,3.58
2023-04-09T15:44:39.234Z,3.67
2023-04-09T15:48:41.594Z,3.60
2023-04-09T15:52:43.320Z,4.50
2023-04-09T15:56:45.162Z,3.80
2023-04-09T16:00:47.293Z,3.80
2023-04-09T16:04:49.338Z,3.70
2023-04-09T16:08:51.362Z,5.28
2023-04-09T16:12:53.410Z,5.15
2023-04-09T16:16:55.266Z,4.68
2023-04-09T16:20:57.695Z,4.60
2023-04-09T16:24:59.521Z,4.35
2023-04-09T16:29:03.940Z,4.75
2023-04-09T16:33:06.267Z,4.62
2023-04-09T16:37:08.142Z,4.28
2023-04-09T16:41:09.813Z,4.30
2023-04-09T16:45:11.689Z,4.50
2023-04-09T16:49:13.897Z,4.65
2023-04-09T16:53:15.589Z,4.60
2023-04-09T16:57:17.412Z,4.28
2023-04-09T17:01:19.146Z,4.20
2023-04-09T17:05:22.357Z,3.65
2023-04-09T17:09:24.992Z,3.75
2023-04-09T17:13:27.252Z,3.92
2023-04-09T17:17:28.973Z,4.60
2023-04-09T17:21:30.935Z,4.30
2023-04-09T17:25:32.600Z,3.80
2023-04-09T17:29:34.664Z,4.20
2023-04-09T17:33:36.701Z,3.90
2023-04-09T17:37:38.568Z,4.35
2023-04-09T17:41:40.429Z,4.45
2023-04-09T17:45:42.344Z,3.87
2023-04-09T17:49:44.417Z,3.58
2023-04-09T17:53:47.212Z,4.35
2023-04-09T17:57:48.869Z,4.60
2023-04-09T18:01:50.670Z,4.43
2023-04-09T18:05:53.690Z,4.53
2023-04-09T18:09:55.571Z,4.00
2023-04-09T18:13:57.286Z,4.10
2023-04-09T18:17:59.766Z,4.30
2023-04-09T18:22:01.556Z,5.00
2023-04-09T18:26:03.304Z,4.20
2023-04-09T18:30:05.598Z,3.85
2023-04-09T18:34:07.352Z,4.12
2023-04-09T18:38:09.049Z,4.20
2023-04-09T18:42:10.812Z,4.40
2023-04-09T18:46:12.573Z,4.20
2023-04-09T18:50:18.571Z,4.97
2023-04-09T18:54:20.759Z,4.32
2023-04-09T18:58:22.655Z,4.18
2023-04-09T19:02:24.585Z,4.55
2023-04-09T19:06:27.883Z,9.82
2023-04-09T19:10:29.632Z,5.90
2023-04-09T19:14:31.369Z,4.87
2023-04-09T19:18:34.173Z,4.57
2023-04-09T19:22:36.679Z,4.35
2023-04-09T19:26:38.917Z,4.60
2023-04-09T19:30:40.603Z,4.87
2023-04-09T19:34:42.635Z,4.45
2023-04-09T19:38:44.384Z,4.90
2023-04-09T19:42:46.106Z,4.70
2023-04-09T19:46:47.858Z,4.90
2023-04-09T19:50:49.604Z,5.10
2023-04-09T19:54:56.073Z,4.97
2023-04-09T19:58:57.775Z,5.77
2023-04-09T20:02:59.755Z,9.05
2023-04-09T20:07:02.134Z,9.15
2023-04-09T20:11:03.983Z,7.12
2023-04-09T20:15:09.187Z,5.45
2023-04-09T20:19:11.525Z,5.20
2023-04-09T20:23:13.284Z,5.70
2023-04-09T20:27:15.140Z,5.62
2023-04-09T20:31:17.070Z,5.22
2023-04-09T20:35:19.113Z,5.80
2023-04-09T20:39:22.241Z,5.93
2023-04-09T20:43:24.032Z,5.22
2023-04-09T20:47:27.446Z,5.87
2023-04-09T20:51:30.849Z,5.90
2023-04-09T20:55:32.619Z,5.65
2023-04-09T20:59:34.626Z,5.82
2023-04-09T21:03:38.250Z,6.35
2023-04-09T21:07:40.158Z,6.78
2023-04-09T21:11:41.883Z,6.62
2023-04-09T21:15:43.578Z,6.72
2023-04-09T21:19:45.644Z,6.35
2023-04-09T21:23:47.362Z,6.22
2023-04-09T21:27:49.072Z,5.85
2023-04-09T21:31:50.711Z,5.72
2023-04-09T21:35:56.496Z,7.00
2023-04-09T21:39:58.566Z,6.85
2023-04-09T21:44:07.822Z,6.25
2023-04-09T21:48:09.530Z,6.90
2023-04-09T21:52:14.885Z,6.60
2023-04-09T21:56:16.895Z,6.72
2023-04-09T22:00:18.623Z,6.37
2023-04-09T22:04:20.340Z,6.07
2023-04-09T22:08:22.184Z,6.45
2023-04-09T22:12:24.059Z,5.53
2023-04-09T22:16:26.291Z,6.93
2023-04-09T22:20:28.211Z,7.12
2023-04-09T22:24:30.273Z,6.20
2023-04-09T22:28:32.131Z,6.60
2023-04-09T22:32:33.911Z,6.12
2023-04-09T22:36:35.802Z,6.62
2023-04-09T22:40:37.495Z,6.43
2023-04-09T22:44:39.869Z,6.37
2023-04-09T22:48:44.887Z,6.50
2023-04-09T22:52:47.113Z,6.37
2023-04-09T22:56:49.540Z,5.75
2023-04-09T23:00:51.576Z,6.62
2023-04-09T23:04:53.321Z,5.75
2023-04-09T23:08:55.434Z,6.05
2023-04-09T23:12:57.321Z,6.47
2023-04-09T23:16:59.036Z,6.80
2023-04-09T23:21:08.353Z,6.68
2023-04-09T23:25:10.051Z,6.62
2023-04-09T23:29:11.777Z,6.87
2023-04-09T23:33:13.533Z,6.70
2023-04-09T23:37:15.354Z,6.32
2023-04-09T23:41:17.115Z,7.07
2023-04-09T23:45:23.347Z,6.35
2023-04-09T23:49:28.262Z,6.97
2023-04-09T23:53:29.973Z,6.70
2023-04-09T23:57:31.749Z,6.72
